createdAt,value
2018-06-25T00:00:06.554Z,8.25
2018-06-25T00:00:39.832Z,7.22
2018-06-25T00:01:12.944Z,7.65
2018-06-25T00:01:46.041Z,7.45
2018-06-25T00:02:19.125Z,7.42
2018-06-25T00:02:52.234Z,11.30
2018-06-25T00:03:25.347Z,6.72
2018-06-25T00:03:58.432Z,7.25
2018-06-25T00:04:31.725Z,9.83
2018-06-25T00:05:04.823Z,9.00
2018-06-25T00:05:38.070Z,10.58
2018-06-25T00:06:11.240Z,8.55
2018-06-25T00:06:44.558Z,9.73
2018-06-25T00:07:17.907Z,6.92
2018-06-25T00:07:51.006Z,10.75
2018-06-25T00:08:24.399Z,8.25
2018-06-25T00:08:57.554Z,9.80
2018-06-25T00:09:30.642Z,8.15
2018-06-25T00:10:03.809Z,7.95
2018-06-25T00:10:37.036Z,8.70
2018-06-25T00:11:10.143Z,10.50
2018-06-25T00:11:43.228Z,10.43
2018-06-25T00:12:16.515Z,11.25
2018-06-25T00:12:49.700Z,7.05
2018-06-25T00:13:22.866Z,7.40
2018-06-25T00:13:55.943Z,9.35
2018-06-25T00:14:29.058Z,7.95
2018-06-25T00:15:02.160Z,9.40
2018-06-25T00:15:35.907Z,8.78
2018-06-25T00:16:09.087Z,8.30
2018-06-25T00:16:42.259Z,6.90
2018-06-25T00:17:15.450Z,9.30
2018-06-25T00:17:48.631Z,8.95
2018-06-25T00:18:22.104Z,7.97
2018-06-25T00:18:55.303Z,8.03
2018-06-25T00:19:28.474Z,8.68
2018-06-25T00:20:01.625Z,11.33
2018-06-25T00:20:34.740Z,8.30
2018-06-25T00:21:07.940Z,9.68
2018-06-25T00:21:41.167Z,8.73
2018-06-25T00:22:14.247Z,7.58
2018-06-25T00:22:47.375Z,7.50
2018-06-25T00:23:20.699Z,8.28
2018-06-25T00:23:53.883Z,11.38
2018-06-25T00:24:26.991Z,8.00
2018-06-25T00:25:00.072Z,7.75
2018-06-25T00:25:33.432Z,8.30
2018-06-25T00:26:06.510Z,7.85
2018-06-25T00:26:39.595Z,7.67
2018-06-25T00:27:12.740Z,7.50
2018-06-25T00:27:45.885Z,8.38
2018-06-25T00:28:18.972Z,7.80
2018-06-25T00:28:52.481Z,8.65
2018-06-25T00:29:25.575Z,7.47
2018-06-25T00:29:58.968Z,8.50
2018-06-25T00:30:32.076Z,10.95
2018-06-25T00:31:05.272Z,8.20
2018-06-25T00:31:38.503Z,8.70
2018-06-25T00:32:11.615Z,8.28
2018-06-25T00:32:44.843Z,9.00
2018-06-25T00:33:18.351Z,9.48
2018-06-25T00:33:51.444Z,8.40
2018-06-25T00:34:24.919Z,8.63
2018-06-25T00:34:58.050Z,8.65
2018-06-25T00:35:31.193Z,9.60
2018-06-25T00:36:04.320Z,8.98
2018-06-25T00:36:37.611Z,11.75
2018-06-25T00:37:10.718Z,10.23
2018-06-25T00:37:43.827Z,8.68
2018-06-25T00:38:17.120Z,9.65
2018-06-25T00:38:50.221Z,9.05
2018-06-25T00:39:23.483Z,10.10
2018-06-25T00:39:56.605Z,10.05
2018-06-25T00:40:29.839Z,10.38
2018-06-25T00:41:02.952Z,10.43
2018-06-25T00:41:36.330Z,13.90
2018-06-25T00:42:09.421Z,9.70
2018-06-25T00:42:42.526Z,10.45
2018-06-25T00:43:15.712Z,9.60
2018-06-25T00:43:48.800Z,10.35
2018-06-25T00:44:21.907Z,10.25
2018-06-25T00:44:55.775Z,9.65
2018-06-25T00:45:29.694Z,16.12
2018-06-25T00:46:02.795Z,10.78
2018-06-25T00:46:35.896Z,12.25
2018-06-25T00:47:09.011Z,13.10
2018-06-25T00:47:42.098Z,9.58
2018-06-25T00:48:15.265Z,14.45
2018-06-25T00:48:48.366Z,9.33
2018-06-25T00:49:21.752Z,11.15
2018-06-25T00:49:55.745Z,10.63
2018-06-25T00:50:28.898Z,13.85
2018-06-25T00:51:02.050Z,10.68
2018-06-25T00:51:35.123Z,12.05
2018-06-25T00:52:08.466Z,15.63
2018-06-25T00:52:41.560Z,11.70
2018-06-25T00:53:14.796Z,12.63
2018-06-25T00:53:48.099Z,14.40
2018-06-25T00:54:21.170Z,12.07
2018-06-25T00:54:54.753Z,11.50
2018-06-25T00:55:27.858Z,12.28
2018-06-25T00:56:01.323Z,13.53
2018-06-25T00:56:34.480Z,13.43
2018-06-25T00:57:07.592Z,11.93
2018-06-25T00:57:40.849Z,11.63
2018-06-25T00:58:13.966Z,10.78
2018-06-25T00:58:52.731Z,17.05
2018-06-25T00:59:31.452Z,10.38
2018-06-25T01:00:04.699Z,11.53
2018-06-25T01:00:37.915Z,16.80
2018-06-25T01:01:11.043Z,13.75
2018-06-25T01:01:44.155Z,11.97
2018-06-25T01:02:17.248Z,12.07
2018-06-25T01:02:50.834Z,11.05
2018-06-25T01:03:23.994Z,12.30
2018-06-25T01:03:57.295Z,14.90
2018-06-25T01:04:30.643Z,12.30
2018-06-25T01:05:03.734Z,14.13
2018-06-25T01:05:36.823Z,14.18
2018-06-25T01:06:09.953Z,11.83
2018-06-25T01:06:43.059Z,10.95
2018-06-25T01:07:16.649Z,17.67
2018-06-25T01:07:49.752Z,11.57
2018-06-25T01:08:22.849Z,14.58
2018-06-25T01:08:56.086Z,15.93
2018-06-25T01:09:29.263Z,12.90
2018-06-25T01:10:02.445Z,12.43
2018-06-25T01:10:35.530Z,11.88
2018-06-25T01:11:08.614Z,14.38
2018-06-25T01:11:41.987Z,13.50
2018-06-25T01:12:15.468Z,16.60
2018-06-25T01:12:48.646Z,11.03
2018-06-25T01:13:21.847Z,15.95
2018-06-25T01:13:54.952Z,12.25
2018-06-25T01:14:28.421Z,12.60
2018-06-25T01:15:01.479Z,13.13
2018-06-25T01:15:34.561Z,12.93
2018-06-25T01:16:07.712Z,15.13
2018-06-25T01:16:40.819Z,14.35
2018-06-25T01:17:14.073Z,11.65
2018-06-25T01:17:47.146Z,10.98
2018-06-25T01:18:20.420Z,12.45
2018-06-25T01:18:53.527Z,16.60
2018-06-25T01:19:27.155Z,12.15
2018-06-25T01:20:00.268Z,11.83
2018-06-25T01:20:33.331Z,15.95
2018-06-25T01:21:06.657Z,16.00
2018-06-25T01:21:39.746Z,15.70
2018-06-25T01:22:12.877Z,13.28
2018-06-25T01:22:46.000Z,12.78
2018-06-25T01:23:19.356Z,16.12
2018-06-25T01:23:52.528Z,11.60
2018-06-25T01:24:25.611Z,12.85
2018-06-25T01:24:58.907Z,14.70
2018-06-25T01:25:32.016Z,13.62
2018-06-25T01:26:05.248Z,16.40
2018-06-25T01:26:39.146Z,11.18
2018-06-25T01:27:12.264Z,14.15
2018-06-25T01:27:45.390Z,13.88
2018-06-25T01:28:18.499Z,13.00
2018-06-25T01:28:52.089Z,19.32
2018-06-25T01:29:25.209Z,13.80
2018-06-25T01:29:58.419Z,16.97
2018-06-25T01:30:31.598Z,12.23
2018-06-25T01:31:04.694Z,14.35
2018-06-25T01:31:37.955Z,11.20
2018-06-25T01:32:11.121Z,16.48
2018-06-25T01:32:44.223Z,13.20
2018-06-25T01:33:17.308Z,12.73
2018-06-25T01:33:50.371Z,11.83
2018-06-25T01:34:23.548Z,12.85
2018-06-25T01:34:57.134Z,15.28
2018-06-25T01:35:30.222Z,15.28
2018-06-25T01:36:03.393Z,12.43
2018-06-25T01:36:36.513Z,11.53
2018-06-25T01:37:09.747Z,13.75
2018-06-25T01:37:43.139Z,13.95
2018-06-25T01:38:16.258Z,11.53
2018-06-25T01:38:49.347Z,13.50
2018-06-25T01:39:22.448Z,13.28
2018-06-25T01:39:55.672Z,11.85
2018-06-25T01:40:28.788Z,13.55
2018-06-25T01:41:01.885Z,11.03
2018-06-25T01:41:34.970Z,11.20
2018-06-25T01:42:08.799Z,13.53
2018-06-25T01:42:41.901Z,10.82
2018-06-25T01:43:15.322Z,16.95
2018-06-25T01:43:48.433Z,11.85
2018-06-25T01:44:21.782Z,13.90
2018-06-25T01:44:54.885Z,12.50
2018-06-25T01:45:27.990Z,12.58
2018-06-25T01:46:01.319Z,13.28
2018-06-25T01:46:34.447Z,12.78
2018-06-25T01:47:07.605Z,13.70
2018-06-25T01:47:41.469Z,14.55
2018-06-25T01:48:14.640Z,11.65
2018-06-25T01:48:47.763Z,18.50
2018-06-25T01:49:20.897Z,12.18
2018-06-25T01:49:53.997Z,10.93
2018-06-25T01:50:27.553Z,14.07
2018-06-25T01:51:01.319Z,12.40
2018-06-25T01:51:35.128Z,10.43
2018-06-25T01:52:08.275Z,13.98
2018-06-25T01:52:41.489Z,13.25
2018-06-25T01:53:14.618Z,16.65
2018-06-25T01:53:47.692Z,11.22
2018-06-25T01:54:20.777Z,13.88
2018-06-25T01:54:53.871Z,17.77
2018-06-25T01:55:27.073Z,12.28
2018-06-25T01:56:00.257Z,11.25
2018-06-25T01:56:33.384Z,10.68
2018-06-25T01:57:06.511Z,12.03
2018-06-25T01:57:39.624Z,10.18
2018-06-25T01:58:13.098Z,11.25
2018-06-25T01:58:46.459Z,11.30
2018-06-25T01:59:19.576Z,15.23
2018-06-25T01:59:52.935Z,16.73
2018-06-25T02:00:26.076Z,14.87
2018-06-25T02:00:59.174Z,11.57
2018-06-25T02:01:32.477Z,12.70
2018-06-25T02:02:05.634Z,11.25
2018-06-25T02:02:38.766Z,12.53
2018-06-25T02:03:11.904Z,13.80
2018-06-25T02:03:44.961Z,15.28
2018-06-25T02:04:18.036Z,15.32
2018-06-25T02:04:51.143Z,12.88
2018-06-25T02:05:24.414Z,13.13
2018-06-25T02:05:57.510Z,15.72
2018-06-25T02:06:30.647Z,12.73
2018-06-25T02:07:03.950Z,10.63
2018-06-25T02:07:37.067Z,13.10
2018-06-25T02:08:10.214Z,12.50
2018-06-25T02:08:43.988Z,15.65
2018-06-25T02:09:17.149Z,12.47
2018-06-25T02:09:50.360Z,11.15
2018-06-25T02:10:23.497Z,10.88
2018-06-25T02:10:56.810Z,12.80
2018-06-25T02:11:30.294Z,13.48
2018-06-25T02:12:03.441Z,11.18
2018-06-25T02:12:37.146Z,14.05
2018-06-25T02:13:10.312Z,10.80
2018-06-25T02:13:43.500Z,11.88
2018-06-25T02:14:16.659Z,12.40
2018-06-25T02:14:49.854Z,13.35
2018-06-25T02:15:22.975Z,18.77
2018-06-25T02:15:56.074Z,11.15
2018-06-25T02:16:29.171Z,13.15
2018-06-25T02:17:02.263Z,10.20
2018-06-25T02:17:35.432Z,11.10
2018-06-25T02:18:08.540Z,10.72
2018-06-25T02:18:41.919Z,10.28
2018-06-25T02:19:15.017Z,10.30
2018-06-25T02:19:48.458Z,11.75
2018-06-25T02:20:21.647Z,14.07
2018-06-25T02:20:54.721Z,9.78
2018-06-25T02:21:28.038Z,9.73
2018-06-25T02:22:01.140Z,9.90
2018-06-25T02:22:34.358Z,9.93
2018-06-25T02:23:07.571Z,11.88
2018-06-25T02:23:40.716Z,12.63
2018-06-25T02:24:13.823Z,11.05
2018-06-25T02:24:46.921Z,10.75
2018-06-25T02:25:20.582Z,13.90
2018-06-25T02:25:53.858Z,15.38
2018-06-25T02:26:26.942Z,12.37
2018-06-25T02:27:00.044Z,14.93
2018-06-25T02:27:33.376Z,9.63
2018-06-25T02:28:06.751Z,13.55
2018-06-25T02:28:39.929Z,15.83
2018-06-25T02:29:13.119Z,17.15
2018-06-25T02:29:46.608Z,9.68
2018-06-25T02:30:19.722Z,15.60
2018-06-25T02:30:53.877Z,12.10
2018-06-25T02:31:26.962Z,12.23
2018-06-25T02:32:00.233Z,10.60
2018-06-25T02:32:33.334Z,11.97
2018-06-25T02:33:06.626Z,12.82
2018-06-25T02:33:39.743Z,14.30
2018-06-25T02:34:12.843Z,10.98
2018-06-25T02:34:45.946Z,17.27
2018-06-25T02:35:19.096Z,12.40
2018-06-25T02:35:52.166Z,12.68
2018-06-25T02:36:25.352Z,14.50
2018-06-25T02:36:58.631Z,17.07
2018-06-25T02:37:32.004Z,13.08
2018-06-25T02:38:05.468Z,10.82
2018-06-25T02:38:38.762Z,10.00
2018-06-25T02:39:12.237Z,10.68
2018-06-25T02:39:45.686Z,16.37
2018-06-25T02:40:18.818Z,14.50
2018-06-25T02:40:52.021Z,17.95
2018-06-25T02:41:25.203Z,15.18
2018-06-25T02:41:58.619Z,10.98
2018-06-25T02:42:31.733Z,15.35
2018-06-25T02:43:05.287Z,12.98
2018-06-25T02:43:38.400Z,13.95
2018-06-25T02:44:11.511Z,12.30
2018-06-25T02:44:44.892Z,11.93
2018-06-25T02:45:18.005Z,15.18
2018-06-25T02:45:51.947Z,16.37
2018-06-25T02:46:25.264Z,11.43
2018-06-25T02:46:58.919Z,11.68
2018-06-25T02:47:31.998Z,12.85
2018-06-25T02:48:05.420Z,10.35
2018-06-25T02:48:38.527Z,12.35
2018-06-25T02:49:12.236Z,12.82
2018-06-25T02:49:45.447Z,14.23
2018-06-25T02:50:18.553Z,13.45
2018-06-25T02:50:51.700Z,13.03
2018-06-25T02:51:24.833Z,11.25
2018-06-25T02:51:58.070Z,11.25
2018-06-25T02:52:31.517Z,12.95
2018-06-25T02:53:04.955Z,14.75
2018-06-25T02:53:38.184Z,17.60
2018-06-25T02:54:11.367Z,12.25
2018-06-25T02:54:44.504Z,15.05
2018-06-25T02:55:17.736Z,14.87
2018-06-25T02:55:50.858Z,16.70
2018-06-25T02:56:23.959Z,12.53
2018-06-25T02:56:57.067Z,17.48
2018-06-25T02:57:30.669Z,14.70
2018-06-25T02:58:03.828Z,16.85
2018-06-25T02:58:37.021Z,17.40
2018-06-25T02:59:10.320Z,15.48
2018-06-25T02:59:43.463Z,12.07
2018-06-25T03:00:16.880Z,14.38
2018-06-25T03:00:50.002Z,13.83
2018-06-25T03:01:23.119Z,13.32
2018-06-25T03:01:56.483Z,14.30
2018-06-25T03:02:29.601Z,14.23
2018-06-25T03:03:02.776Z,15.53
2018-06-25T03:03:35.844Z,14.18
2018-06-25T03:04:08.916Z,14.00
2018-06-25T03:04:42.375Z,11.18
2018-06-25T03:05:15.568Z,11.50
2018-06-25T03:05:48.652Z,13.78
2018-06-25T03:06:21.899Z,20.55
2018-06-25T03:06:55.100Z,12.40
2018-06-25T03:07:28.235Z,17.23
2018-06-25T03:08:01.456Z,15.95
2018-06-25T03:08:34.615Z,14.65
2018-06-25T03:09:09.108Z,16.25
2018-06-25T03:09:42.233Z,15.53
2018-06-25T03:10:15.397Z,15.50
2018-06-25T03:10:48.551Z,15.88
2018-06-25T03:11:21.640Z,19.40
2018-06-25T03:11:54.916Z,20.10
2018-06-25T03:12:28.125Z,12.80
2018-06-25T03:13:01.300Z,12.20
2018-06-25T03:13:34.427Z,13.95
2018-06-25T03:14:07.556Z,16.75
2018-06-25T03:14:41.431Z,13.22
2018-06-25T03:15:14.623Z,17.32
2018-06-25T03:15:47.756Z,17.23
2018-06-25T03:16:21.077Z,14.53
2018-06-25T03:16:54.192Z,19.20
2018-06-25T03:17:27.325Z,17.77
2018-06-25T03:18:00.516Z,16.20
2018-06-25T03:18:33.799Z,18.23
2018-06-25T03:19:06.945Z,16.93
2018-06-25T03:19:40.126Z,13.85
2018-06-25T03:20:13.219Z,12.37
2018-06-25T03:20:46.380Z,17.65
2018-06-25T03:21:19.603Z,23.02
2018-06-25T03:21:52.871Z,14.85
2018-06-25T03:22:25.975Z,16.37
2018-06-25T03:22:59.100Z,14.15
2018-06-25T03:23:32.296Z,16.23
2018-06-25T03:24:05.491Z,15.90
2018-06-25T03:24:38.608Z,13.10
2018-06-25T03:25:11.837Z,14.00
2018-06-25T03:25:44.919Z,13.48
2018-06-25T03:26:18.050Z,16.02
2018-06-25T03:26:51.161Z,15.35
2018-06-25T03:27:24.820Z,14.10
2018-06-25T03:27:58.139Z,16.62
2018-06-25T03:28:31.523Z,16.23
2018-06-25T03:29:04.636Z,15.58
2018-06-25T03:29:37.811Z,20.85
2018-06-25T03:30:11.366Z,17.67
2018-06-25T03:30:44.489Z,15.30
2018-06-25T03:31:17.696Z,13.13
2018-06-25T03:31:50.808Z,13.68
2018-06-25T03:32:24.060Z,12.73
2018-06-25T03:32:57.167Z,18.77
2018-06-25T03:33:30.284Z,19.60
2018-06-25T03:34:03.396Z,15.78
2018-06-25T03:34:36.483Z,16.30
2018-06-25T03:35:09.652Z,13.60
2018-06-25T03:35:42.835Z,14.13
2018-06-25T03:36:16.018Z,13.93
2018-06-25T03:36:49.149Z,14.50
2018-06-25T03:37:22.241Z,17.15
2018-06-25T03:37:55.335Z,16.95
2018-06-25T03:38:28.719Z,15.80
2018-06-25T03:39:01.799Z,14.90
2018-06-25T03:39:34.991Z,17.65
2018-06-25T03:40:08.093Z,12.37
2018-06-25T03:40:41.447Z,22.02
2018-06-25T03:41:14.524Z,15.88
2018-06-25T03:41:47.629Z,16.23
2018-06-25T03:42:20.883Z,15.25
2018-06-25T03:42:54.148Z,15.13
2018-06-25T03:43:27.335Z,17.90
2018-06-25T03:44:00.770Z,14.13
2018-06-25T03:44:33.839Z,14.43
2018-06-25T03:45:07.160Z,15.23
2018-06-25T03:45:40.351Z,18.45
2018-06-25T03:46:13.871Z,14.35
2018-06-25T03:46:47.130Z,18.45
2018-06-25T03:47:20.239Z,18.30
2018-06-25T03:47:53.662Z,13.88
2018-06-25T03:48:26.863Z,15.00
2018-06-25T03:49:00.029Z,15.85
2018-06-25T03:49:33.212Z,18.25
2018-06-25T03:50:06.409Z,12.80
2018-06-25T03:50:39.568Z,17.12
2018-06-25T03:51:12.673Z,16.62
2018-06-25T03:51:45.928Z,14.05
2018-06-25T03:52:19.225Z,15.95
2018-06-25T03:52:52.577Z,18.05
2018-06-25T03:53:25.788Z,15.98
2018-06-25T03:53:58.995Z,17.70
2018-06-25T03:54:32.122Z,18.60
2018-06-25T03:55:05.642Z,14.30
2018-06-25T03:55:38.714Z,13.78
2018-06-25T03:56:11.965Z,13.68
2018-06-25T03:56:45.268Z,16.87
2018-06-25T03:57:18.391Z,13.93
2018-06-25T03:57:51.503Z,14.45
2018-06-25T03:58:24.592Z,17.62
2018-06-25T03:58:57.691Z,16.40
2018-06-25T03:59:31.036Z,16.70
2018-06-25T04:00:04.218Z,16.73
2018-06-25T04:00:37.332Z,15.70
2018-06-25T04:01:10.853Z,16.85
2018-06-25T04:01:44.076Z,18.73
2018-06-25T04:02:17.228Z,20.77
2018-06-25T04:02:50.373Z,15.40
2018-06-25T04:03:23.582Z,18.92
2018-06-25T04:03:56.723Z,16.52
2018-06-25T04:04:30.301Z,17.20
2018-06-25T04:05:03.475Z,14.23
2018-06-25T04:05:36.572Z,19.12
2018-06-25T04:06:09.687Z,14.95
2018-06-25T04:06:42.804Z,15.50
2018-06-25T04:07:16.170Z,15.80
2018-06-25T04:07:49.457Z,15.23
2018-06-25T04:08:22.578Z,17.30
2018-06-25T04:08:55.669Z,20.35
2018-06-25T04:09:28.744Z,17.00
2018-06-25T04:10:01.829Z,17.40
2018-06-25T04:10:35.056Z,19.85
2018-06-25T04:11:08.159Z,18.20
2018-06-25T04:11:41.389Z,13.18
2018-06-25T04:12:14.623Z,13.98
2018-06-25T04:12:47.721Z,14.83
2018-06-25T04:13:21.116Z,17.17
2018-06-25T04:13:54.254Z,14.53
2018-06-25T04:14:27.939Z,20.43
2018-06-25T04:15:01.264Z,16.42
2018-06-25T04:15:34.385Z,14.70
2018-06-25T04:16:07.836Z,17.90
2018-06-25T04:16:41.033Z,16.48
2018-06-25T04:17:14.293Z,15.68
2018-06-25T04:17:47.343Z,13.98
2018-06-25T04:18:21.492Z,15.25
2018-06-25T04:19:00.456Z,20.48
2018-06-25T04:19:33.684Z,19.02
2018-06-25T04:20:07.054Z,20.23
2018-06-25T04:20:40.606Z,17.62
2018-06-25T04:21:13.717Z,17.37
2018-06-25T04:21:47.488Z,19.32
2018-06-25T04:22:20.894Z,20.37
2018-06-25T04:22:54.063Z,16.23
2018-06-25T04:23:27.235Z,12.68
2018-06-25T04:24:01.032Z,17.37
2018-06-25T04:24:34.200Z,17.92
2018-06-25T04:25:07.411Z,15.35
2018-06-25T04:25:40.532Z,17.12
2018-06-25T04:26:13.731Z,17.17
2018-06-25T04:26:47.125Z,17.42
2018-06-25T04:27:20.206Z,16.40
2018-06-25T04:27:53.292Z,16.77
2018-06-25T04:28:26.454Z,19.00
2018-06-25T04:28:59.543Z,21.35
2018-06-25T04:29:32.692Z,17.00
2018-06-25T04:30:05.976Z,16.27
2018-06-25T04:30:39.115Z,19.75
2018-06-25T04:31:12.207Z,19.10
2018-06-25T04:31:45.275Z,17.92
2018-06-25T04:32:18.363Z,16.95
2018-06-25T04:32:51.439Z,14.20
2018-06-25T04:33:24.504Z,15.98
2018-06-25T04:33:57.722Z,15.30
2018-06-25T04:34:30.925Z,14.18
2018-06-25T04:35:04.067Z,16.45
2018-06-25T04:35:37.172Z,15.50
2018-06-25T04:36:10.335Z,12.68
2018-06-25T04:36:43.523Z,16.25
2018-06-25T04:37:17.308Z,19.42
2018-06-25T04:37:50.488Z,20.55
2018-06-25T04:38:23.582Z,16.70
2018-06-25T04:38:57.757Z,15.68
2018-06-25T04:39:32.170Z,16.77
2018-06-25T04:40:05.473Z,13.00
2018-06-25T04:40:39.132Z,17.70
2018-06-25T04:41:12.803Z,21.60
2018-06-25T04:41:46.065Z,16.57
2018-06-25T04:42:19.184Z,18.85
2018-06-25T04:42:52.463Z,18.02
2018-06-25T04:43:25.553Z,20.95
2018-06-25T04:43:58.755Z,15.88
2018-06-25T04:44:32.016Z,18.52
2018-06-25T04:45:05.202Z,17.00
2018-06-25T04:45:38.371Z,20.27
2018-06-25T04:46:12.196Z,19.27
2018-06-25T04:46:45.272Z,20.32
2018-06-25T04:47:18.642Z,18.30
2018-06-25T04:47:51.727Z,22.00
2018-06-25T04:48:24.865Z,19.32
2018-06-25T04:48:58.059Z,20.60
2018-06-25T04:49:31.144Z,17.40
2018-06-25T04:50:04.245Z,28.20
2018-06-25T04:50:37.718Z,17.98
2018-06-25T04:51:10.988Z,18.27
2018-06-25T04:51:44.187Z,18.27
2018-06-25T04:52:17.448Z,17.90
2018-06-25T04:52:51.156Z,18.15
2018-06-25T04:53:24.389Z,17.92
2018-06-25T04:53:57.508Z,14.13
2018-06-25T04:54:30.825Z,17.55
2018-06-25T04:55:03.916Z,17.87
2018-06-25T04:55:37.235Z,19.95
2018-06-25T04:56:10.831Z,18.30
2018-06-25T04:56:44.439Z,20.35
2018-06-25T04:57:17.566Z,17.67
2018-06-25T04:57:50.871Z,23.90
2018-06-25T04:58:24.211Z,18.07
2018-06-25T04:58:57.320Z,21.12
2018-06-25T04:59:30.650Z,20.65
2018-06-25T05:00:03.780Z,15.35
2018-06-25T05:00:36.953Z,16.37
2018-06-25T05:01:10.102Z,19.27
2018-06-25T05:01:43.177Z,20.15
2018-06-25T05:02:16.297Z,19.45
2018-06-25T05:02:49.479Z,19.75
2018-06-25T05:03:22.823Z,22.20
2018-06-25T05:03:55.952Z,15.88
2018-06-25T05:04:29.060Z,15.78
2018-06-25T05:05:02.389Z,21.15
2018-06-25T05:05:35.679Z,17.98
2018-06-25T05:06:08.897Z,14.15
2018-06-25T05:06:42.161Z,18.80
2018-06-25T05:07:15.528Z,18.95
2018-06-25T05:07:48.586Z,19.32
2018-06-25T05:08:21.997Z,16.05
2018-06-25T05:08:55.165Z,26.55
2018-06-25T05:09:28.257Z,22.73
2018-06-25T05:10:02.052Z,20.00
2018-06-25T05:10:35.395Z,21.60
2018-06-25T05:11:08.517Z,18.70
2018-06-25T05:11:41.870Z,17.85
2018-06-25T05:12:14.947Z,21.37
2018-06-25T05:12:48.152Z,16.15
2018-06-25T05:13:21.306Z,16.48
2018-06-25T05:13:54.405Z,20.65
2018-06-25T05:14:27.542Z,17.50
2018-06-25T05:15:00.848Z,23.02
2018-06-25T05:15:35.348Z,19.77
2018-06-25T05:16:08.441Z,16.35
2018-06-25T05:16:41.781Z,18.73
2018-06-25T05:17:15.081Z,21.35
2018-06-25T05:17:48.191Z,16.93
2018-06-25T05:18:21.415Z,18.50
2018-06-25T05:18:54.597Z,22.58
2018-06-25T05:19:27.752Z,16.57
2018-06-25T05:20:00.828Z,18.40
2018-06-25T05:20:33.896Z,18.70
2018-06-25T05:21:06.969Z,18.73
2018-06-25T05:21:40.111Z,22.60
2018-06-25T05:22:13.512Z,30.43
2018-06-25T05:22:47.796Z,22.02
2018-06-25T05:23:20.944Z,20.70
2018-06-25T05:23:54.084Z,21.30
2018-06-25T05:24:27.466Z,22.40
2018-06-25T05:25:00.547Z,19.25
2018-06-25T05:25:33.668Z,18.32
2018-06-25T05:26:06.766Z,19.85
2018-06-25T05:26:40.066Z,19.62
2018-06-25T05:27:13.147Z,21.52
2018-06-25T05:27:46.398Z,21.10
2018-06-25T05:28:19.685Z,24.23
2018-06-25T05:28:52.799Z,20.62
2018-06-25T05:29:26.536Z,22.77
2018-06-25T05:29:59.639Z,18.90
2018-06-25T05:30:32.885Z,20.17
2018-06-25T05:31:06.044Z,20.10
2018-06-25T05:31:39.186Z,20.77
2018-06-25T05:32:12.559Z,19.67
2018-06-25T05:32:46.030Z,20.60
2018-06-25T05:33:20.433Z,19.73
2018-06-25T05:33:53.800Z,21.60
2018-06-25T05:34:26.996Z,18.10
2018-06-25T05:35:00.613Z,17.87
2018-06-25T05:35:33.728Z,25.82
2018-06-25T05:36:07.111Z,19.50
2018-06-25T05:36:40.192Z,24.95
2018-06-25T05:37:13.522Z,22.73
2018-06-25T05:37:46.641Z,21.00
2018-06-25T05:38:19.788Z,17.32
2018-06-25T05:38:53.144Z,20.15
2018-06-25T05:39:26.256Z,20.20
2018-06-25T05:39:59.983Z,20.97
2018-06-25T05:40:33.118Z,22.77
2018-06-25T05:41:06.239Z,27.07
2018-06-25T05:41:39.832Z,22.13
2018-06-25T05:42:18.361Z,21.80
2018-06-25T05:42:51.772Z,27.98
2018-06-25T05:43:24.903Z,24.63
2018-06-25T05:43:58.058Z,22.17
2018-06-25T05:44:31.193Z,24.72
2018-06-25T05:45:04.488Z,23.70
2018-06-25T05:45:37.737Z,27.73
2018-06-25T05:46:10.919Z,20.52
2018-06-25T05:46:44.287Z,23.22
2018-06-25T05:47:17.891Z,23.07
2018-06-25T05:47:51.024Z,19.55
2018-06-25T05:48:24.251Z,23.75
2018-06-25T05:48:57.432Z,23.38
2018-06-25T05:49:30.635Z,25.60
2018-06-25T05:50:03.811Z,22.15
2018-06-25T05:50:36.961Z,25.15
2018-06-25T05:51:10.036Z,24.75
2018-06-25T05:51:43.421Z,22.40
2018-06-25T05:52:16.722Z,21.55
2018-06-25T05:52:49.981Z,20.65
2018-06-25T05:53:23.382Z,20.55
2018-06-25T05:53:56.549Z,23.85
2018-06-25T05:54:29.656Z,20.92
2018-06-25T05:55:02.857Z,18.92
2018-06-25T05:55:35.975Z,22.60
2018-06-25T05:56:09.235Z,21.12
2018-06-25T05:56:42.389Z,24.82
2018-06-25T05:57:15.603Z,20.00
2018-06-25T05:57:48.760Z,22.75
2018-06-25T05:58:21.908Z,23.40
2018-06-25T05:58:56.386Z,22.10
2018-06-25T05:59:29.542Z,21.68
2018-06-25T06:00:02.727Z,23.15
2018-06-25T06:00:36.306Z,25.23
2018-06-25T06:01:09.367Z,22.27
2018-06-25T06:01:42.448Z,22.52
2018-06-25T06:11:28.578Z,26.15
2018-06-25T06:12:01.659Z,28.85
2018-06-25T06:12:34.804Z,22.77
2018-06-25T06:13:07.906Z,20.57
2018-06-25T06:13:41.241Z,20.45
2018-06-25T06:14:14.462Z,29.40
2018-06-25T06:14:47.934Z,23.07
2018-06-25T06:15:21.219Z,27.67
2018-06-25T06:15:54.620Z,21.50
2018-06-25T06:16:27.717Z,22.85
2018-06-25T06:17:00.977Z,30.88
2018-06-25T06:17:34.370Z,24.25
2018-06-25T06:18:07.504Z,21.42
2018-06-25T06:18:40.694Z,24.25
2018-06-25T06:19:14.303Z,19.32
2018-06-25T06:19:47.483Z,22.15
2018-06-25T06:20:20.828Z,21.07
2018-06-25T06:20:53.923Z,21.60
2018-06-25T06:21:27.057Z,23.55
2018-06-25T06:22:00.398Z,27.35
2018-06-25T06:22:33.570Z,27.22
2018-06-25T06:23:06.606Z,22.60
2018-06-25T06:23:39.787Z,20.23
2018-06-25T06:24:12.905Z,28.92
2018-06-25T06:24:46.072Z,24.87
2018-06-25T06:25:19.461Z,19.48
2018-06-25T06:25:52.755Z,20.72
2018-06-25T06:26:25.919Z,24.35
2018-06-25T06:26:59.111Z,22.58
2018-06-25T06:27:32.606Z,20.30
2018-06-25T06:28:06.191Z,23.22
2018-06-25T06:28:39.271Z,24.00
2018-06-25T06:29:12.357Z,24.32
2018-06-25T06:29:45.551Z,19.90
2018-06-25T06:30:18.684Z,22.22
2018-06-25T06:30:51.750Z,22.37
2018-06-25T06:31:24.887Z,20.65
2018-06-25T06:31:58.260Z,20.88
2018-06-25T06:32:31.390Z,18.30
2018-06-25T06:33:04.508Z,26.33
2018-06-25T06:33:37.768Z,19.30
2018-06-25T06:34:10.864Z,24.02
2018-06-25T06:34:44.056Z,21.65
2018-06-25T06:35:17.584Z,24.52
2018-06-25T06:35:51.595Z,28.98
2018-06-25T06:36:24.707Z,17.85
2018-06-25T06:36:57.862Z,22.05
2018-06-25T06:37:31.347Z,23.22
2018-06-25T06:38:04.664Z,24.25
2018-06-25T06:38:37.727Z,24.82
2018-06-25T06:39:13.525Z,23.85
2018-06-25T06:39:46.619Z,22.15
2018-06-25T06:40:20.003Z,25.82
2018-06-25T06:40:53.182Z,19.12
2018-06-25T06:41:26.241Z,22.90
2018-06-25T06:41:59.355Z,20.65
2018-06-25T06:42:32.439Z,24.07
2018-06-25T06:43:05.530Z,23.90
2018-06-25T06:43:38.636Z,22.87
2018-06-25T06:44:11.815Z,22.52
2018-06-25T06:44:44.999Z,22.95
2018-06-25T06:45:18.206Z,28.55
2018-06-25T06:45:51.306Z,22.77
2018-06-25T06:46:24.412Z,20.65
2018-06-25T06:46:57.554Z,23.73
2018-06-25T06:47:30.657Z,17.92
2018-06-25T06:48:04.012Z,22.93
2018-06-25T06:48:37.128Z,23.22
2018-06-25T06:49:10.523Z,18.65
2018-06-25T06:49:43.574Z,23.18
2018-06-25T06:50:16.774Z,18.85
2018-06-25T06:50:49.882Z,20.55
2018-06-25T06:51:23.147Z,21.30
2018-06-25T06:51:57.283Z,20.35
2018-06-25T06:52:30.542Z,19.02
2018-06-25T06:53:03.655Z,19.45
2018-06-25T06:53:36.760Z,25.08
2018-06-25T06:54:09.933Z,27.30
2018-06-25T06:54:42.991Z,19.60
2018-06-25T06:55:16.375Z,20.48
2018-06-25T06:55:49.484Z,19.30
2018-06-25T06:56:22.551Z,20.60
2018-06-25T06:56:55.836Z,20.68
2018-06-25T06:57:28.968Z,20.80
2018-06-25T06:58:02.192Z,19.87
2018-06-25T06:58:35.306Z,27.42
2018-06-25T06:59:08.574Z,30.48
2018-06-25T06:59:41.686Z,20.72
2018-06-25T07:00:14.947Z,27.65
2018-06-25T07:00:48.227Z,20.95
2018-06-25T07:01:21.329Z,25.77
2018-06-25T07:01:54.433Z,22.65
2018-06-25T07:02:27.556Z,26.05
2018-06-25T07:03:00.635Z,21.52
2018-06-25T07:03:33.752Z,26.20
2018-06-25T07:04:06.856Z,23.07
2018-06-25T07:04:40.695Z,24.18
2018-06-25T07:05:13.783Z,24.63
2018-06-25T07:05:46.878Z,22.93
2018-06-25T07:06:19.958Z,24.02
2018-06-25T07:06:53.247Z,24.60
2018-06-25T07:07:26.316Z,21.85
2018-06-25T07:07:59.447Z,21.10
2018-06-25T07:08:32.916Z,29.12
2018-06-25T07:09:07.852Z,23.05
2018-06-25T07:09:41.224Z,22.87
2018-06-25T07:10:14.340Z,20.40
2018-06-25T07:10:47.457Z,22.55
2018-06-25T07:11:20.663Z,21.52
2018-06-25T07:11:53.741Z,22.05
2018-06-25T07:12:26.844Z,26.73
2018-06-25T07:12:59.953Z,19.60
2018-06-25T07:13:33.168Z,21.27
2018-06-25T07:14:06.723Z,20.23
2018-06-25T07:14:40.007Z,20.02
2018-06-25T07:15:13.146Z,24.87
2018-06-25T07:15:46.703Z,24.63
2018-06-25T07:16:19.862Z,24.92
2018-06-25T07:16:53.177Z,24.55
2018-06-25T07:17:26.252Z,23.42
2018-06-25T07:17:59.333Z,19.37
2018-06-25T07:18:32.563Z,21.45